Terminal Aerodrome Forecast
Issued by NWS Mt. Holly, NJ

Home | Current Version | Previous Version | Text Only | Print | Product List | Glossary On
Versions: 1 2 3 4 5 6 7 8 9 10 11 12 13 14 15 16 17 18 19 20 21 22 23 24 25 26 27 28
810
FTUS41 KPHI 092326
TAFPHL
TAF
KPHL 092326Z 1000/1106 05006KT 6SM -SN OVC015
      TEMPO 1000/1004 3/4SM -SN OVC008
     FM100400 34004KT 4SM -SN OVC010
     FM100600 30006KT P6SM VCSH OVC010
     FM100900 28010KT P6SM OVC025
     FM101100 29012KT P6SM SCT020 BKN050
     FM101400 28015G25KT P6SM BKN050=

USA.gov is the U.S. government's official web portal to all federal, state and local government web resources and services.